createdAt,value
2023-02-15T00:00:20.873Z,101999.63
2023-02-15T00:02:49.222Z,102005.50
2023-02-15T00:05:17.879Z,102006.28
2023-02-15T00:07:47.609Z,102012.19
2023-02-15T00:10:15.948Z,102004.41
2023-02-15T00:12:44.258Z,102006.09
2023-02-15T00:15:14.088Z,101998.28
2023-02-15T00:17:42.430Z,102007.56
2023-02-15T00:20:11.971Z,102002.47
2023-02-15T00:22:40.379Z,101992.16
2023-02-15T00:25:10.165Z,101998.09
2023-02-15T00:27:38.488Z,101999.81
2023-02-15T00:30:09.068Z,101996.50
2023-02-15T00:32:37.516Z,101987.88
2023-02-15T00:35:07.905Z,101985.31
2023-02-15T00:37:36.247Z,101981.03
2023-02-15T00:40:05.364Z,101987.88
2023-02-15T00:42:35.154Z,101986.28
2023-02-15T00:45:03.570Z,101976.94
2023-02-15T00:47:32.145Z,101968.63
2023-02-15T00:50:00.467Z,101972.19
2023-02-15T00:52:28.874Z,101974.00
2023-02-15T00:54:57.205Z,101970.56
2023-02-15T00:57:25.750Z,101967.91
2023-02-15T00:59:55.496Z,101965.44
2023-02-15T01:02:23.897Z,101967.13
2023-02-15T01:04:52.302Z,101964.59
2023-02-15T01:07:20.661Z,101968.09
2023-02-15T01:09:49.126Z,101962.13
2023-02-15T01:12:17.575Z,101958.75
2023-02-15T01:14:46.058Z,101948.56
2023-02-15T01:17:16.188Z,101957.03
2023-02-15T01:19:44.958Z,101950.03
2023-02-15T01:22:13.318Z,101946.47
2023-02-15T01:24:41.916Z,101948.25
2023-02-15T01:27:10.335Z,101951.78
2023-02-15T01:29:38.758Z,101950.09
2023-02-15T01:32:07.260Z,101949.28
2023-02-15T01:34:37.084Z,101948.50
2023-02-15T01:37:05.523Z,101949.50
2023-02-15T01:39:34.041Z,101943.59
2023-02-15T01:42:02.716Z,101941.19
2023-02-15T01:44:52.703Z,101941.22
2023-02-15T01:47:29.137Z,101941.19
2023-02-15T01:50:09.922Z,101940.34
2023-02-15T01:52:42.696Z,101937.81
2023-02-15T01:55:13.692Z,101948.06
2023-02-15T01:57:43.240Z,101940.41
2023-02-15T02:00:14.944Z,101931.06
2023-02-15T02:02:47.151Z,101942.25
2023-02-15T02:05:16.988Z,101937.13
2023-02-15T02:07:48.836Z,101930.34
2023-02-15T02:10:21.322Z,101929.47
2023-02-15T02:12:54.065Z,101929.47
2023-02-15T02:15:27.401Z,101927.75
2023-02-15T02:18:11.249Z,101915.66
2023-02-15T02:21:28.167Z,101922.53
2023-02-15T02:24:36.368Z,101923.41
2023-02-15T02:27:31.111Z,101913.22
2023-02-15T02:30:44.824Z,101911.94
2023-02-15T02:33:41.849Z,101910.41
2023-02-15T02:36:24.333Z,101906.09
2023-02-15T02:39:09.792Z,101907.03
2023-02-15T02:41:47.411Z,101907.84
2023-02-15T02:44:21.351Z,101907.84
2023-02-15T02:46:55.775Z,101902.72
2023-02-15T02:49:37.791Z,101896.63
2023-02-15T02:52:09.755Z,101900.91
2023-02-15T02:54:38.670Z,101898.34
2023-02-15T02:57:10.939Z,101901.00
2023-02-15T02:59:46.729Z,101904.38
2023-02-15T03:02:22.072Z,101906.03
2023-02-15T03:04:59.633Z,101898.34
2023-02-15T03:07:31.225Z,101896.72
2023-02-15T03:10:02.657Z,101904.56
2023-02-15T03:12:35.355Z,101904.69
2023-02-15T03:15:08.585Z,101903.00
2023-02-15T03:17:42.124Z,101897.75
2023-02-15T03:20:18.004Z,101897.75
2023-02-15T03:22:53.123Z,101891.03
2023-02-15T03:25:26.197Z,101890.91
2023-02-15T03:28:01.840Z,101898.75
2023-02-15T03:30:33.315Z,101899.63
2023-02-15T03:33:03.263Z,101897.75
2023-02-15T03:35:40.996Z,101905.47
2023-02-15T03:38:11.705Z,101898.63
2023-02-15T03:41:01.655Z,101909.56
2023-02-15T03:43:36.966Z,101906.09
2023-02-15T03:46:13.852Z,101902.69
2023-02-15T03:48:48.599Z,101896.72
2023-02-15T03:51:39.168Z,101902.59
2023-02-15T03:54:11.055Z,101897.34
2023-02-15T03:57:03.324Z,101890.50
2023-02-15T03:59:49.045Z,101886.34
2023-02-15T04:02:26.477Z,101887.03
2023-02-15T04:04:54.856Z,101888.78
2023-02-15T04:07:24.600Z,101887.81
2023-02-15T04:10:21.995Z,101891.31
2023-02-15T04:12:50.335Z,101884.50
2023-02-15T04:15:36.590Z,101880.31
2023-02-15T04:18:05.808Z,101880.31
2023-02-15T04:20:51.743Z,101884.59
2023-02-15T04:23:39.090Z,101876.88
2023-02-15T04:26:07.820Z,101878.72
2023-02-15T04:28:36.180Z,101882.03
2023-02-15T04:31:04.762Z,101880.31
2023-02-15T04:33:33.275Z,101880.25
2023-02-15T04:36:01.899Z,101875.88
2023-02-15T04:38:31.789Z,101876.69
2023-02-15T04:41:00.091Z,101877.56
2023-02-15T04:43:28.435Z,101880.16
2023-02-15T04:45:56.804Z,101877.56
2023-02-15T04:48:25.165Z,101879.16
2023-02-15T04:50:53.615Z,101877.44
2023-02-15T04:53:22.125Z,101884.22
2023-02-15T04:55:52.157Z,101879.94
2023-02-15T04:58:20.522Z,101867.84
2023-02-15T05:00:48.883Z,101878.16
2023-02-15T05:03:19.552Z,101878.97
2023-02-15T05:05:48.064Z,101876.47
2023-02-15T05:08:16.459Z,101886.75
2023-02-15T05:10:45.166Z,101884.13
2023-02-15T05:13:14.863Z,101889.00
2023-02-15T05:15:44.906Z,101893.09
2023-02-15T05:18:13.336Z,101895.44
2023-02-15T05:20:41.647Z,101898.78
2023-02-15T05:23:10.243Z,101904.69
2023-02-15T05:25:56.437Z,101908.84
2023-02-15T05:28:29.614Z,101905.31
2023-02-15T05:31:09.991Z,101906.97
2023-02-15T05:33:39.121Z,101906.09
2023-02-15T05:36:08.814Z,101902.63
2023-02-15T05:38:38.640Z,101904.34
2023-02-15T05:41:07.251Z,101901.94
2023-02-15T05:43:37.743Z,101902.75
2023-02-15T05:46:06.601Z,101903.63
2023-02-15T05:48:35.536Z,101897.53
2023-02-15T05:51:07.194Z,101899.13
2023-02-15T05:53:37.734Z,101894.75
2023-02-15T05:56:08.975Z,101901.66
2023-02-15T05:58:41.454Z,101902.53
2023-02-15T06:01:11.675Z,101906.72
2023-02-15T06:03:40.190Z,101902.28
2023-02-15T06:06:08.882Z,101898.63
2023-02-15T06:08:39.207Z,101904.34
2023-02-15T06:11:08.136Z,101900.03
2023-02-15T06:13:39.195Z,101912.72
2023-02-15T06:16:08.108Z,101907.56
2023-02-15T06:18:36.583Z,101902.47
2023-02-15T06:21:05.212Z,101907.63
2023-02-15T06:23:33.523Z,101910.22
2023-02-15T06:26:02.144Z,101907.69
2023-02-15T06:28:30.622Z,101902.53
2023-02-15T06:31:00.486Z,101905.28
2023-02-15T06:33:29.028Z,101901.84
2023-02-15T06:35:57.525Z,101913.00
2023-02-15T06:38:25.996Z,101915.31
2023-02-15T06:40:54.338Z,101916.94
2023-02-15T06:43:22.769Z,101914.19
2023-02-15T06:45:51.234Z,101918.53
2023-02-15T06:48:21.109Z,101916.81
2023-02-15T06:50:50.249Z,101911.75
2023-02-15T06:53:18.640Z,101914.47
2023-02-15T06:55:47.172Z,101913.72
2023-02-15T06:58:15.764Z,101907.91
2023-02-15T07:00:44.214Z,101902.91
2023-02-15T07:03:16.805Z,101902.91
2023-02-15T07:05:48.570Z,101915.75
2023-02-15T07:08:17.004Z,101908.16
2023-02-15T07:10:46.410Z,101909.03
2023-02-15T07:13:13.825Z,101902.28
2023-02-15T07:15:42.193Z,101904.88
2023-02-15T07:18:11.818Z,101904.06
2023-02-15T07:20:42.635Z,101907.44
2023-02-15T07:23:12.342Z,101904.75
2023-02-15T07:25:41.083Z,101902.06
2023-02-15T07:28:10.456Z,101902.06
2023-02-15T07:30:38.814Z,101901.19
2023-02-15T07:33:25.139Z,101896.94
2023-02-15T07:35:56.131Z,101901.13
2023-02-15T07:38:27.099Z,101893.38
2023-02-15T07:41:00.906Z,101896.84
2023-02-15T07:43:30.303Z,101897.72
2023-02-15T07:46:02.168Z,101890.06
2023-02-15T07:48:30.795Z,101893.63
2023-02-15T07:51:01.584Z,101895.50
2023-02-15T07:53:31.507Z,101886.03
2023-02-15T07:56:02.081Z,101890.41
2023-02-15T07:58:44.514Z,101882.50
2023-02-15T08:01:12.907Z,101885.81
2023-02-15T08:03:41.362Z,101888.38
2023-02-15T08:06:10.775Z,101886.63
2023-02-15T08:08:40.767Z,101884.72
2023-02-15T08:11:27.275Z,101888.81
2023-02-15T08:14:00.299Z,101875.06
2023-02-15T08:16:32.705Z,101882.69
2023-02-15T08:19:04.020Z,101870.75
2023-02-15T08:21:34.179Z,101876.69
2023-02-15T08:24:05.190Z,101872.38
2023-02-15T08:26:34.334Z,101869.16
2023-02-15T08:29:04.166Z,101869.31
2023-02-15T08:31:32.714Z,101871.06
2023-02-15T08:34:02.097Z,101882.31
2023-02-15T08:36:32.833Z,101874.63
2023-02-15T08:39:05.044Z,101877.31
2023-02-15T08:41:36.626Z,101869.72
2023-02-15T08:44:08.320Z,101868.91
2023-02-15T08:46:39.942Z,101871.44
2023-02-15T08:49:08.462Z,101862.78
2023-02-15T08:51:39.730Z,101858.59
2023-02-15T08:54:12.338Z,101852.53
2023-02-15T08:56:44.930Z,101854.13
2023-02-15T08:59:17.370Z,101848.09
2023-02-15T09:01:46.963Z,101856.66
2023-02-15T09:04:16.852Z,101846.41
2023-02-15T09:06:48.839Z,101845.56
2023-02-15T09:09:19.904Z,101842.03
2023-02-15T09:11:54.607Z,101842.13
2023-02-15T09:14:27.611Z,101848.09
2023-02-15T09:16:57.222Z,101846.38
2023-02-15T09:19:27.276Z,101838.50
2023-02-15T09:21:56.247Z,101842.66
2023-02-15T09:24:26.412Z,101829.03
2023-02-15T09:26:54.867Z,101829.09
2023-02-15T09:29:23.811Z,101838.50
2023-02-15T09:31:54.712Z,101841.78
2023-02-15T09:34:24.709Z,101841.13
2023-02-15T09:36:53.501Z,101842.84
2023-02-15T09:39:24.755Z,101833.47
2023-02-15T09:42:46.938Z,101839.44
2023-02-15T09:45:33.834Z,101840.03
2023-02-15T09:48:41.854Z,101846.03
2023-02-15T09:51:43.695Z,101841.50
2023-02-15T09:54:35.006Z,101834.25
2023-02-15T09:57:11.842Z,101832.22
2023-02-15T09:59:53.405Z,101832.97
2023-02-15T10:02:39.723Z,101834.72
2023-02-15T10:05:27.512Z,101839.09
2023-02-15T10:08:23.389Z,101832.38
2023-02-15T10:11:26.264Z,101828.94
2023-02-15T10:14:08.194Z,101823.13
2023-02-15T10:16:47.718Z,101819.72
2023-02-15T10:19:27.812Z,101816.34
2023-02-15T10:22:10.828Z,101816.50
2023-02-15T10:25:13.141Z,101818.13
2023-02-15T10:27:48.896Z,101810.56
2023-02-15T10:30:18.145Z,101809.75
2023-02-15T10:33:01.287Z,101808.16
2023-02-15T10:35:44.013Z,101797.97
2023-02-15T10:38:26.962Z,101801.53
2023-02-15T10:41:10.661Z,101792.25
2023-02-15T10:43:57.615Z,101789.78
2023-02-15T10:46:50.106Z,101794.94
2023-02-15T10:50:05.491Z,101787.16
2023-02-15T10:52:50.133Z,101792.13
2023-02-15T10:55:26.773Z,101785.28
2023-02-15T10:58:03.507Z,101783.69
2023-02-15T11:00:43.530Z,101777.72
2023-02-15T11:03:37.066Z,101776.91
2023-02-15T11:06:11.347Z,101770.25
2023-02-15T11:08:46.164Z,101767.72
2023-02-15T11:11:23.491Z,101773.63
2023-02-15T11:13:58.894Z,101776.97
2023-02-15T11:16:32.001Z,101768.38
2023-02-15T11:19:08.962Z,101765.97
2023-02-15T11:21:44.375Z,101766.91
2023-02-15T11:24:14.371Z,101764.34
2023-02-15T11:26:48.258Z,101760.88
2023-02-15T11:29:26.624Z,101754.97
2023-02-15T11:32:00.549Z,101760.13
2023-02-15T11:34:34.681Z,101755.09
2023-02-15T11:37:10.864Z,101758.56
2023-02-15T11:39:39.354Z,101755.16
2023-02-15T11:42:15.421Z,101758.56
2023-02-15T11:45:01.417Z,101750.09
2023-02-15T11:47:30.444Z,101758.84
2023-02-15T11:49:59.837Z,101757.97
2023-02-15T11:52:29.621Z,101761.31
2023-02-15T11:54:58.013Z,101755.28
2023-02-15T11:57:33.858Z,101750.25
2023-02-15T12:00:12.469Z,101749.47
2023-02-15T12:02:43.503Z,101735.81
2023-02-15T12:05:17.804Z,101743.81
2023-02-15T12:07:52.270Z,101738.78
2023-02-15T12:10:25.873Z,101731.84
2023-02-15T12:13:13.292Z,101731.06
2023-02-15T12:15:47.677Z,101731.13
2023-02-15T12:18:39.947Z,101730.25
2023-02-15T12:21:12.917Z,101718.31
2023-02-15T12:23:57.587Z,101713.94
2023-02-15T12:26:29.095Z,101723.41
2023-02-15T12:29:02.708Z,101714.94
2023-02-15T12:31:38.199Z,101713.94
2023-02-15T12:34:15.624Z,101713.13
2023-02-15T12:36:47.488Z,101707.13
2023-02-15T12:39:27.637Z,101708.75
2023-02-15T12:42:06.886Z,101712.28
2023-02-15T12:44:37.004Z,101695.28
2023-02-15T12:47:08.308Z,101691.88
2023-02-15T12:49:38.451Z,101695.47
2023-02-15T12:52:24.688Z,101684.59
2023-02-15T12:54:54.841Z,101689.91
2023-02-15T12:57:28.092Z,101685.66
2023-02-15T12:59:59.390Z,101688.34
2023-02-15T13:02:37.406Z,101679.75
2023-02-15T13:05:33.257Z,101672.97
2023-02-15T13:08:06.397Z,101677.38
2023-02-15T13:10:41.530Z,101669.72
2023-02-15T13:13:13.652Z,101664.69
2023-02-15T13:15:46.579Z,101665.56
2023-02-15T13:18:20.102Z,101659.59
2023-02-15T13:20:50.422Z,101658.72
2023-02-15T13:23:29.827Z,101661.28
2023-02-15T13:26:04.655Z,101653.69
2023-02-15T13:28:41.985Z,101645.34
2023-02-15T13:31:16.646Z,101651.38
2023-02-15T13:33:51.636Z,101647.16
2023-02-15T13:36:28.952Z,101641.03
2023-02-15T13:39:16.740Z,101638.38
2023-02-15T13:42:01.611Z,101645.97
2023-02-15T13:45:13.072Z,101649.25
2023-02-15T13:47:53.038Z,101639.56
2023-02-15T13:50:41.691Z,101645.53
2023-02-15T13:53:30.400Z,101638.56
2023-02-15T13:56:05.899Z,101642.00
2023-02-15T13:59:06.943Z,101641.03
2023-02-15T14:01:46.342Z,101647.97
2023-02-15T14:04:49.709Z,101636.94
2023-02-15T14:07:47.434Z,101632.56
2023-02-15T14:10:34.803Z,101635.22
2023-02-15T14:14:00.282Z,101637.94
2023-02-15T14:16:42.971Z,101631.22
2023-02-15T14:19:26.609Z,101622.63
2023-02-15T14:22:03.649Z,101623.19
2023-02-15T14:24:40.890Z,101629.09
2023-02-15T14:27:25.895Z,101628.13
2023-02-15T14:29:59.605Z,101621.16
2023-02-15T14:32:36.503Z,101625.25
2023-02-15T14:35:07.601Z,101620.88
2023-02-15T14:37:47.205Z,101621.72
2023-02-15T14:40:48.773Z,101620.03
2023-02-15T14:43:33.417Z,101619.28
2023-02-15T14:46:12.102Z,101619.28
2023-02-15T14:48:47.034Z,101615.88
2023-02-15T14:52:00.166Z,101615.66
2023-02-15T14:54:59.451Z,101615.56
2023-02-15T14:57:34.820Z,101610.31
2023-02-15T15:00:36.256Z,101601.00
2023-02-15T15:03:21.267Z,101606.97
2023-02-15T15:05:54.928Z,101593.16
2023-02-15T15:08:31.738Z,101605.16
2023-02-15T15:11:43.960Z,101600.91
2023-02-15T15:14:28.856Z,101600.19
2023-02-15T15:16:57.317Z,101588.31
2023-02-15T15:20:09.316Z,101590.97
2023-02-15T15:22:38.732Z,101584.03
2023-02-15T15:25:14.683Z,101578.91
2023-02-15T15:27:51.822Z,101583.16
2023-02-15T15:31:07.563Z,101585.63
2023-02-15T15:34:20.448Z,101587.13
2023-02-15T15:37:48.872Z,101580.03
2023-02-15T15:40:59.880Z,101572.34
2023-02-15T15:44:33.002Z,101580.84
2023-02-15T15:47:28.897Z,101573.94
2023-02-15T15:50:00.127Z,101564.44
2023-02-15T15:52:32.551Z,101571.22
2023-02-15T15:55:18.921Z,101571.22
2023-02-15T15:57:50.931Z,101570.38
2023-02-15T16:00:42.739Z,101567.84
2023-02-15T16:03:18.036Z,101565.25
2023-02-15T16:05:46.477Z,101571.25
2023-02-15T16:08:15.448Z,101566.16
2023-02-15T16:10:45.403Z,101567.03
2023-02-15T16:13:16.850Z,101572.19
2023-02-15T16:15:50.709Z,101567.84
2023-02-15T16:18:21.075Z,101565.03
2023-02-15T16:20:55.399Z,101575.91
2023-02-15T16:23:58.510Z,101565.41
2023-02-15T16:26:49.649Z,101561.84
2023-02-15T16:29:20.265Z,101560.84
2023-02-15T16:32:04.788Z,101559.06
2023-02-15T16:34:34.380Z,101545.25
2023-02-15T16:37:17.001Z,101552.84
2023-02-15T16:39:49.071Z,101543.50
2023-02-15T16:42:20.382Z,101541.63
2023-02-15T16:44:53.290Z,101544.25
2023-02-15T16:47:26.839Z,101542.38
2023-02-15T16:49:59.249Z,101540.69
2023-02-15T16:52:29.123Z,101543.13
2023-02-15T16:55:00.258Z,101540.59
2023-02-15T16:57:34.855Z,101536.28
2023-02-15T17:00:07.956Z,101538.03
2023-02-15T17:02:55.113Z,101530.25
2023-02-15T17:05:25.459Z,101533.69
2023-02-15T17:08:15.886Z,101534.13
2023-02-15T17:10:48.438Z,101536.63
2023-02-15T17:13:19.670Z,101539.13
2023-02-15T17:16:32.948Z,101525.72
2023-02-15T17:19:03.969Z,101529.31
2023-02-15T17:21:36.220Z,101509.75
2023-02-15T17:24:06.607Z,101513.34
2023-02-15T17:26:38.193Z,101512.63
2023-02-15T17:29:27.635Z,101513.53
2023-02-15T17:31:59.535Z,101502.63
2023-02-15T17:34:48.561Z,101501.75
2023-02-15T17:37:29.033Z,101502.75
2023-02-15T17:39:59.239Z,101502.88
2023-02-15T17:42:28.274Z,101500.34
2023-02-15T17:44:58.051Z,101497.78
2023-02-15T17:47:30.051Z,101495.13
2023-02-15T17:49:58.625Z,101494.16
2023-02-15T17:52:30.478Z,101490.56
2023-02-15T17:55:16.531Z,101486.28
2023-02-15T17:57:44.887Z,101487.09
2023-02-15T18:00:38.843Z,101479.47
2023-02-15T18:03:27.297Z,101475.25
2023-02-15T18:06:13.395Z,101481.25
2023-02-15T18:08:59.035Z,101464.97
2023-02-15T18:11:39.394Z,101471.69
2023-02-15T18:14:09.821Z,101473.03
2023-02-15T18:16:43.499Z,101466.69
2023-02-15T18:19:17.703Z,101465.84
2023-02-15T18:21:47.360Z,101468.56
2023-02-15T18:24:20.329Z,101461.09
2023-02-15T18:26:49.667Z,101459.50
2023-02-15T18:29:18.339Z,101454.75
2023-02-15T18:31:54.587Z,101458.28
2023-02-15T18:34:28.204Z,101458.41
2023-02-15T18:36:57.892Z,101450.88
2023-02-15T18:39:38.113Z,101453.41
2023-02-15T18:42:08.222Z,101446.47
2023-02-15T18:44:36.562Z,101448.13
2023-02-15T18:47:06.422Z,101445.53
2023-02-15T18:49:34.847Z,101447.22
2023-02-15T18:52:04.249Z,101442.13
2023-02-15T18:54:32.804Z,101430.19
2023-02-15T18:57:02.732Z,101435.41
2023-02-15T18:59:32.539Z,101436.28
2023-02-15T19:02:01.444Z,101436.28
2023-02-15T19:04:32.413Z,101440.44
2023-02-15T19:07:00.910Z,101438.59
2023-02-15T19:09:29.520Z,101428.16
2023-02-15T19:11:59.853Z,101423.78
2023-02-15T19:14:31.335Z,101428.00
2023-02-15T19:17:01.696Z,101427.09
2023-02-15T19:19:32.834Z,101423.78
2023-02-15T19:22:03.807Z,101420.50
2023-02-15T19:24:40.431Z,101424.03
2023-02-15T19:27:13.595Z,101425.00
2023-02-15T19:29:41.988Z,101422.50
2023-02-15T19:32:12.734Z,101420.75
2023-02-15T19:34:42.687Z,101421.56
2023-02-15T19:37:24.642Z,101412.06
2023-02-15T19:39:53.843Z,101408.59
2023-02-15T19:42:25.405Z,101400.81
2023-02-15T19:44:54.594Z,101415.41
2023-02-15T19:47:23.371Z,101402.69
2023-02-15T19:49:53.051Z,101413.84
2023-02-15T19:52:24.308Z,101404.50
2023-02-15T19:54:55.965Z,101403.63
2023-02-15T19:57:24.989Z,101412.19
2023-02-15T19:59:53.448Z,101405.34
2023-02-15T20:02:21.908Z,101401.00
2023-02-15T20:04:50.320Z,101396.66
2023-02-15T20:07:27.328Z,101388.81
2023-02-15T20:09:55.994Z,101398.13
2023-02-15T20:12:26.329Z,101386.84
2023-02-15T20:14:54.918Z,101384.25
2023-02-15T20:17:23.584Z,101382.50
2023-02-15T20:19:52.015Z,101380.00
2023-02-15T20:22:29.123Z,101374.78
2023-02-15T20:24:59.139Z,101372.19
2023-02-15T20:27:27.751Z,101375.53
2023-02-15T20:29:57.050Z,101370.38
2023-02-15T20:32:25.726Z,101370.34
2023-02-15T20:34:54.183Z,101376.22
2023-02-15T20:37:28.943Z,101371.94
2023-02-15T20:39:57.449Z,101361.75
2023-02-15T20:42:25.939Z,101365.25
2023-02-15T20:44:54.395Z,101363.56
2023-02-15T20:47:22.825Z,101356.84
2023-02-15T20:49:51.439Z,101355.13
2023-02-15T20:52:23.363Z,101349.22
2023-02-15T20:54:51.877Z,101355.25
2023-02-15T20:57:20.276Z,101351.03
2023-02-15T20:59:49.675Z,101340.03
2023-02-15T21:02:20.954Z,101349.34
2023-02-15T21:04:49.492Z,101351.97
2023-02-15T21:07:19.697Z,101348.53
2023-02-15T21:09:51.029Z,101340.16
2023-02-15T21:12:22.250Z,101336.69
2023-02-15T21:14:50.830Z,101335.00
2023-02-15T21:17:19.211Z,101334.19
2023-02-15T21:19:47.774Z,101332.59
2023-02-15T21:22:17.690Z,101327.41
2023-02-15T21:24:51.718Z,101333.47
2023-02-15T21:27:20.800Z,101330.03
2023-02-15T21:29:49.635Z,101326.72
2023-02-15T21:32:18.966Z,101326.81
2023-02-15T21:34:47.413Z,101327.69
2023-02-15T21:37:30.207Z,101321.63
2023-02-15T21:40:00.170Z,101314.69
2023-02-15T21:42:47.924Z,101314.78
2023-02-15T21:45:35.472Z,101310.47
2023-02-15T21:48:04.305Z,101302.09
2023-02-15T21:50:50.203Z,101299.53
2023-02-15T21:53:25.293Z,101294.47
2023-02-15T21:55:58.903Z,101295.31
2023-02-15T21:58:30.323Z,101289.38
2023-02-15T22:01:01.653Z,101297.13
2023-02-15T22:03:34.380Z,101289.41
2023-02-15T22:06:03.293Z,101288.63
2023-02-15T22:08:32.127Z,101281.72
2023-02-15T22:11:02.374Z,101275.09
2023-02-15T22:13:34.391Z,101271.72
2023-02-15T22:16:04.503Z,101262.34
2023-02-15T22:18:35.554Z,101252.00
2023-02-15T22:21:05.060Z,101247.69
2023-02-15T22:23:33.607Z,101250.16
2023-02-15T22:26:08.384Z,101245.78
2023-02-15T22:28:41.041Z,101238.72
2023-02-15T22:31:16.044Z,101238.78
2023-02-15T22:33:45.682Z,101237.03
2023-02-15T22:36:24.948Z,101235.31
2023-02-15T22:38:53.942Z,101229.25
2023-02-15T22:41:26.293Z,101231.91
2023-02-15T22:43:54.977Z,101230.16
2023-02-15T22:46:25.595Z,101225.97
2023-02-15T22:48:54.286Z,101227.69
2023-02-15T22:51:25.198Z,101226.03
2023-02-15T22:53:53.918Z,101231.97
2023-02-15T22:56:33.211Z,101225.97
2023-02-15T22:59:06.871Z,101232.78
2023-02-15T23:01:37.850Z,101220.03
2023-02-15T23:04:07.244Z,101220.88
2023-02-15T23:06:36.065Z,101216.69
2023-02-15T23:09:04.776Z,101214.09
2023-02-15T23:11:34.591Z,101222.59
2023-02-15T23:14:03.868Z,101219.97
2023-02-15T23:16:34.593Z,101212.28
2023-02-15T23:19:02.998Z,101208.13
2023-02-15T23:21:34.707Z,101209.69
2023-02-15T23:24:21.693Z,101209.69
2023-02-15T23:26:52.679Z,101197.72
2023-02-15T23:29:23.933Z,101210.44
2023-02-15T23:31:54.553Z,101200.13
2023-02-15T23:34:29.128Z,101196.56
2023-02-15T23:36:58.174Z,101197.34
2023-02-15T23:39:46.885Z,101193.88
2023-02-15T23:42:21.070Z,101190.34
2023-02-15T23:44:50.100Z,101187.63
2023-02-15T23:47:42.459Z,101184.16
2023-02-15T23:50:19.213Z,101170.50
2023-02-15T23:52:48.065Z,101162.00
2023-02-15T23:55:17.353Z,101161.00
2023-02-15T23:57:47.786Z,101142.97
